createdAt,value
2022-10-10T00:00:27.480Z,10.06
2022-10-10T00:01:27.620Z,10.02
2022-10-10T00:02:27.455Z,10.09
2022-10-10T00:03:27.458Z,10.17
2022-10-10T00:04:27.396Z,10.04
2022-10-10T00:05:27.389Z,10.17
2022-10-10T00:06:31.902Z,10.14
2022-10-10T00:07:28.457Z,10.20
2022-10-10T00:08:27.360Z,10.18
2022-10-10T00:09:27.393Z,10.16
2022-10-10T00:10:27.338Z,10.25
2022-10-10T00:11:27.352Z,10.32
2022-10-10T00:12:27.338Z,10.29
2022-10-10T00:13:27.345Z,10.32
2022-10-10T00:14:30.416Z,10.43
2022-10-10T00:15:28.325Z,10.38
2022-10-10T00:16:27.273Z,10.44
2022-10-10T00:17:27.275Z,10.46
2022-10-10T00:18:27.304Z,10.46
2022-10-10T00:19:27.263Z,10.47
2022-10-10T00:20:27.232Z,10.46
2022-10-10T00:21:27.274Z,10.52
2022-10-10T00:22:27.239Z,10.58
2022-10-10T00:23:27.263Z,10.51
2022-10-10T00:24:27.177Z,10.55
2022-10-10T00:25:27.169Z,10.62
2022-10-10T00:26:27.201Z,10.57
2022-10-10T00:27:27.147Z,10.51
2022-10-10T00:28:27.252Z,10.49
2022-10-10T00:29:27.147Z,10.52
2022-10-10T00:30:27.115Z,10.57
2022-10-10T00:31:27.113Z,10.55
2022-10-10T00:32:27.316Z,10.52
2022-10-10T00:33:27.101Z,10.51
2022-10-10T00:34:27.076Z,10.52
2022-10-10T00:35:27.232Z,10.46
2022-10-10T00:36:27.063Z,10.55
2022-10-10T00:37:27.077Z,10.47
2022-10-10T00:38:27.074Z,10.49
2022-10-10T00:39:27.009Z,10.44
2022-10-10T00:40:27.022Z,10.49
2022-10-10T00:41:27.000Z,10.46
2022-10-10T00:42:27.092Z,10.44
2022-10-10T00:43:27.139Z,10.47
2022-10-10T00:44:26.981Z,10.44
2022-10-10T00:45:26.961Z,10.44
2022-10-10T00:46:27.033Z,10.46
2022-10-10T00:47:26.996Z,10.44
2022-10-10T00:48:27.026Z,10.44
2022-10-10T00:49:26.917Z,10.43
2022-10-10T00:50:26.923Z,10.46
2022-10-10T00:51:26.938Z,10.49
2022-10-10T00:52:26.879Z,10.55
2022-10-10T00:53:27.228Z,10.51
2022-10-10T00:54:26.867Z,10.51
2022-10-10T00:55:26.867Z,10.55
2022-10-10T00:56:26.935Z,10.51
2022-10-10T00:57:26.842Z,10.49
2022-10-10T00:58:26.828Z,10.52
2022-10-10T00:59:26.855Z,10.49
2022-10-10T01:00:26.884Z,10.54
2022-10-10T01:01:26.983Z,10.55
2022-10-10T01:02:26.813Z,10.69
2022-10-10T01:03:26.764Z,10.80
2022-10-10T01:04:26.755Z,10.80
2022-10-10T01:05:26.747Z,10.75
2022-10-10T01:06:26.736Z,10.73
2022-10-10T01:07:26.711Z,10.72
2022-10-10T01:08:26.780Z,10.76
2022-10-10T01:09:26.693Z,10.75
2022-10-10T01:10:26.701Z,10.68
2022-10-10T01:11:26.669Z,10.69
2022-10-10T01:12:26.674Z,10.63
2022-10-10T01:13:26.673Z,10.51
2022-10-10T01:14:26.736Z,10.57
2022-10-10T01:15:26.628Z,10.55
2022-10-10T01:16:26.622Z,10.54
2022-10-10T01:17:26.613Z,10.39
2022-10-10T01:18:26.634Z,10.43
2022-10-10T01:19:26.587Z,10.32
2022-10-10T01:20:26.580Z,10.39
2022-10-10T01:21:26.583Z,10.43
2022-10-10T01:22:26.555Z,10.31
2022-10-10T01:23:26.556Z,10.32
2022-10-10T01:24:26.541Z,10.31
2022-10-10T01:25:26.516Z,10.26
2022-10-10T01:26:26.518Z,10.22
2022-10-10T01:27:31.158Z,10.17
2022-10-10T01:28:27.527Z,10.22
2022-10-10T01:29:26.515Z,10.16
2022-10-10T01:30:26.483Z,10.22
2022-10-10T01:31:26.476Z,10.18
2022-10-10T01:32:26.514Z,10.22
2022-10-10T01:33:26.435Z,10.20
2022-10-10T01:34:26.468Z,10.13
2022-10-10T01:35:26.403Z,10.10
2022-10-10T01:36:26.428Z,10.10
2022-10-10T01:37:26.424Z,10.10
2022-10-10T01:38:26.433Z,10.07
2022-10-10T01:39:26.365Z,10.14
2022-10-10T01:40:26.454Z,10.04
2022-10-10T01:41:26.340Z,10.04
2022-10-10T01:42:26.380Z,10.10
2022-10-10T01:43:26.339Z,10.01
2022-10-10T01:44:26.316Z,10.02
2022-10-10T01:45:26.365Z,9.99
2022-10-10T01:46:26.333Z,9.98
2022-10-10T01:47:26.279Z,9.96
2022-10-10T01:48:26.310Z,10.16
2022-10-10T01:49:26.263Z,10.28
2022-10-10T01:50:26.283Z,10.20
2022-10-10T01:51:26.230Z,10.20
2022-10-10T01:52:26.350Z,10.18
2022-10-10T01:53:26.248Z,10.24
2022-10-10T01:54:26.238Z,10.18
2022-10-10T01:55:26.290Z,10.18
2022-10-10T01:56:26.242Z,10.13
2022-10-10T01:57:26.189Z,10.16
2022-10-10T01:58:26.180Z,10.17
2022-10-10T01:59:26.153Z,10.25
2022-10-10T02:00:26.129Z,10.24
2022-10-10T02:01:26.121Z,10.26
2022-10-10T02:02:26.172Z,10.36
2022-10-10T02:03:26.098Z,10.42
2022-10-10T02:04:26.176Z,10.44
2022-10-10T02:05:26.071Z,10.38
2022-10-10T02:06:26.169Z,10.38
2022-10-10T02:07:26.054Z,10.49
2022-10-10T02:08:26.061Z,10.47
2022-10-10T02:09:26.046Z,10.51
2022-10-10T02:10:26.024Z,10.51
2022-10-10T02:11:26.096Z,10.47
2022-10-10T02:12:26.023Z,10.60
2022-10-10T02:13:25.993Z,10.58
2022-10-10T02:14:25.999Z,10.57
2022-10-10T02:15:25.972Z,10.62
2022-10-10T02:16:25.991Z,10.58
2022-10-10T02:17:25.946Z,10.57
2022-10-10T02:18:26.018Z,10.69
2022-10-10T02:19:25.928Z,10.72
2022-10-10T02:20:25.915Z,10.76
2022-10-10T02:21:25.905Z,10.75
2022-10-10T02:22:25.917Z,10.76
2022-10-10T02:23:25.936Z,10.76
2022-10-10T02:24:25.871Z,10.75
2022-10-10T02:25:25.886Z,10.76
2022-10-10T02:26:25.851Z,10.81
2022-10-10T02:27:25.877Z,10.86
2022-10-10T02:28:25.950Z,10.87
2022-10-10T02:29:25.816Z,10.87
2022-10-10T02:30:25.844Z,10.90
2022-10-10T02:31:25.863Z,10.91
2022-10-10T02:32:25.791Z,10.98
2022-10-10T02:33:25.775Z,11.01
2022-10-10T02:34:25.863Z,10.95
2022-10-10T02:35:25.746Z,10.95
2022-10-10T02:36:25.742Z,11.02
2022-10-10T02:37:25.750Z,11.05
2022-10-10T02:38:25.715Z,11.06
2022-10-10T02:39:25.750Z,11.05
2022-10-10T02:40:25.695Z,11.03
2022-10-10T02:41:25.680Z,11.05
2022-10-10T02:42:25.688Z,11.03
2022-10-10T02:43:25.681Z,11.05
2022-10-10T02:44:25.646Z,11.08
2022-10-10T02:45:25.705Z,11.13
2022-10-10T02:46:25.648Z,11.21
2022-10-10T02:47:25.680Z,11.28
2022-10-10T02:48:25.652Z,11.38
2022-10-10T02:49:25.611Z,11.36
2022-10-10T02:50:25.591Z,11.36
2022-10-10T02:51:29.666Z,11.39
2022-10-10T02:52:25.609Z,11.39
2022-10-10T02:53:25.639Z,11.48
2022-10-10T02:54:25.547Z,11.48
2022-10-10T02:55:25.529Z,11.45
2022-10-10T02:56:25.530Z,11.38
2022-10-10T02:57:25.584Z,11.46
2022-10-10T02:58:25.498Z,11.42
2022-10-10T02:59:25.516Z,11.45
2022-10-10T03:00:25.564Z,11.44
2022-10-10T03:01:25.528Z,11.46
2022-10-10T03:02:25.488Z,11.44
2022-10-10T03:03:25.489Z,11.45
2022-10-10T03:04:25.449Z,11.46
2022-10-10T03:05:25.433Z,11.44
2022-10-10T03:06:25.433Z,11.53
2022-10-10T03:07:25.448Z,11.45
2022-10-10T03:08:25.408Z,11.38
2022-10-10T03:09:25.380Z,11.38
2022-10-10T03:10:25.376Z,11.44
2022-10-10T03:11:25.380Z,11.46
2022-10-10T03:12:25.412Z,11.54
2022-10-10T03:13:25.441Z,11.49
2022-10-10T03:14:25.352Z,11.46
2022-10-10T03:15:25.352Z,11.57
2022-10-10T03:16:25.360Z,11.45
2022-10-10T03:17:25.419Z,11.49
2022-10-10T03:18:25.326Z,11.51
2022-10-10T03:19:25.301Z,11.54
2022-10-10T03:20:25.272Z,11.53
2022-10-10T03:21:25.313Z,11.62
2022-10-10T03:22:25.248Z,11.51
2022-10-10T03:23:25.266Z,11.57
2022-10-10T03:24:25.261Z,11.54
2022-10-10T03:25:25.266Z,11.53
2022-10-10T03:26:25.198Z,11.57
2022-10-10T03:27:25.244Z,11.56
2022-10-10T03:28:25.266Z,11.53
2022-10-10T03:29:25.201Z,11.59
2022-10-10T03:30:25.150Z,11.59
2022-10-10T03:31:25.160Z,11.60
2022-10-10T03:32:25.154Z,11.51
2022-10-10T03:33:25.236Z,11.54
2022-10-10T03:34:25.152Z,11.54
2022-10-10T03:35:25.153Z,11.60
2022-10-10T03:36:25.122Z,11.59
2022-10-10T03:37:25.175Z,11.59
2022-10-10T03:38:25.065Z,11.49
2022-10-10T03:39:25.051Z,11.49
2022-10-10T03:40:25.049Z,11.51
2022-10-10T03:41:25.108Z,11.42
2022-10-10T03:42:25.068Z,11.51
2022-10-10T03:43:25.023Z,11.53
2022-10-10T03:44:25.010Z,11.56
2022-10-10T03:45:25.011Z,11.59
2022-10-10T03:46:25.000Z,11.60
2022-10-10T03:47:24.981Z,11.62
2022-10-10T03:48:24.961Z,11.62
2022-10-10T03:49:24.968Z,11.64
2022-10-10T03:50:24.940Z,11.64
2022-10-10T03:51:24.971Z,11.67
2022-10-10T03:52:24.935Z,11.70
2022-10-10T03:53:24.917Z,11.75
2022-10-10T03:54:24.943Z,11.63
2022-10-10T03:55:24.870Z,11.70
2022-10-10T03:56:24.863Z,11.69
2022-10-10T03:57:24.878Z,11.70
2022-10-10T03:58:24.844Z,11.70
2022-10-10T03:59:24.858Z,11.62
2022-10-10T04:00:24.870Z,11.72
2022-10-10T04:01:24.922Z,11.69
2022-10-10T04:02:24.832Z,11.66
2022-10-10T04:03:24.840Z,11.59
2022-10-10T04:04:24.784Z,11.63
2022-10-10T04:05:24.776Z,11.66
2022-10-10T04:06:24.775Z,11.64
2022-10-10T04:07:24.757Z,11.62
2022-10-10T04:08:24.774Z,11.59
2022-10-10T04:09:24.722Z,11.63
2022-10-10T04:10:24.757Z,11.63
2022-10-10T04:11:24.703Z,11.59
2022-10-10T04:12:24.785Z,11.70
2022-10-10T04:13:24.700Z,11.59
2022-10-10T04:14:24.666Z,11.62
2022-10-10T04:15:24.693Z,11.62
2022-10-10T04:16:24.656Z,11.67
2022-10-10T04:17:24.660Z,11.62
2022-10-10T04:18:24.631Z,11.63
2022-10-10T04:19:24.611Z,11.56
2022-10-10T04:20:24.617Z,11.59
2022-10-10T04:21:24.664Z,11.53
2022-10-10T04:22:24.597Z,11.63
2022-10-10T04:23:24.581Z,11.63
2022-10-10T04:24:24.557Z,11.59
2022-10-10T04:25:24.579Z,11.57
2022-10-10T04:26:24.541Z,11.56
2022-10-10T04:27:24.525Z,11.57
2022-10-10T04:28:24.675Z,11.56
2022-10-10T04:29:24.506Z,11.57
2022-10-10T04:30:24.500Z,11.53
2022-10-10T04:31:24.479Z,11.59
2022-10-10T04:32:24.504Z,11.54
2022-10-10T04:33:24.475Z,11.56
2022-10-10T04:34:24.482Z,11.51
2022-10-10T04:35:24.434Z,11.57
2022-10-10T04:36:24.508Z,11.59
2022-10-10T04:37:24.418Z,11.56
2022-10-10T04:38:24.458Z,11.60
2022-10-10T04:39:24.425Z,11.53
2022-10-10T04:40:26.851Z,11.53
2022-10-10T04:41:24.373Z,11.54
2022-10-10T04:42:24.391Z,11.57
2022-10-10T04:43:24.367Z,11.64
2022-10-10T04:44:24.382Z,11.66
2022-10-10T04:45:24.323Z,11.60
2022-10-10T04:46:24.350Z,11.57
2022-10-10T04:47:24.304Z,11.54
2022-10-10T04:48:24.370Z,11.49
2022-10-10T04:49:24.275Z,11.49
2022-10-10T04:50:24.269Z,11.54
2022-10-10T04:51:24.256Z,11.57
2022-10-10T04:52:24.262Z,11.60
2022-10-10T04:53:24.352Z,11.54
2022-10-10T04:54:24.303Z,11.57
2022-10-10T04:55:24.253Z,11.54
2022-10-10T04:56:24.263Z,11.51
2022-10-10T04:57:24.228Z,11.48
2022-10-10T04:58:24.279Z,11.46
2022-10-10T04:59:24.195Z,11.56
2022-10-10T05:00:24.267Z,11.53
2022-10-10T05:01:24.218Z,11.45
2022-10-10T05:02:24.203Z,11.56
2022-10-10T05:03:24.163Z,11.44
2022-10-10T05:04:24.137Z,11.42
2022-10-10T05:05:24.104Z,11.38
2022-10-10T05:06:24.097Z,11.45
2022-10-10T05:07:24.085Z,11.46
2022-10-10T05:08:24.161Z,11.45
2022-10-10T05:09:24.069Z,11.39
2022-10-10T05:10:24.087Z,11.46
2022-10-10T05:11:24.051Z,11.41
2022-10-10T05:12:24.116Z,11.45
2022-10-10T05:13:24.174Z,11.44
2022-10-10T05:14:24.014Z,11.57
2022-10-10T05:15:24.007Z,11.54
2022-10-10T05:16:24.129Z,11.56
2022-10-10T05:17:23.975Z,11.59
2022-10-10T05:18:24.142Z,11.54
2022-10-10T05:19:23.971Z,11.57
2022-10-10T05:20:23.942Z,11.62
2022-10-10T05:21:23.935Z,11.66
2022-10-10T05:22:23.950Z,11.66
2022-10-10T05:23:23.955Z,11.66
2022-10-10T05:24:24.050Z,11.62
2022-10-10T05:25:23.947Z,11.63
2022-10-10T05:26:23.934Z,11.66
2022-10-10T05:27:23.908Z,11.66
2022-10-10T05:28:23.973Z,11.72
2022-10-10T05:29:23.852Z,11.69
2022-10-10T05:30:23.854Z,11.77
2022-10-10T05:31:23.828Z,11.67
2022-10-10T05:32:23.813Z,11.74
2022-10-10T05:33:23.927Z,11.70
2022-10-10T05:34:23.809Z,11.84
2022-10-10T05:35:23.781Z,11.81
2022-10-10T05:36:23.819Z,11.81
2022-10-10T05:37:23.770Z,11.72
2022-10-10T05:38:23.796Z,11.84
2022-10-10T05:39:23.753Z,11.82
2022-10-10T05:40:23.740Z,11.82
2022-10-10T05:41:23.735Z,11.93
2022-10-10T05:42:23.766Z,11.88
2022-10-10T05:43:23.746Z,11.87
2022-10-10T05:44:23.687Z,11.94
2022-10-10T05:45:23.693Z,11.94
2022-10-10T05:46:23.665Z,12.07
2022-10-10T05:47:27.623Z,12.00
2022-10-10T05:48:23.667Z,12.00
2022-10-10T05:49:23.673Z,12.01
2022-10-10T05:50:23.626Z,12.01
2022-10-10T05:51:23.606Z,12.07
2022-10-10T05:52:23.605Z,12.07
2022-10-10T05:53:23.647Z,12.07
2022-10-10T05:54:23.592Z,12.05
2022-10-10T05:55:23.584Z,12.03
2022-10-10T05:56:23.561Z,12.05
2022-10-10T05:57:23.634Z,12.12
2022-10-10T05:58:23.577Z,12.04
2022-10-10T05:59:23.527Z,12.08
2022-10-10T06:00:23.522Z,12.04
2022-10-10T06:01:23.493Z,11.96
2022-10-10T06:02:23.542Z,12.04
2022-10-10T06:03:23.522Z,12.05
2022-10-10T06:04:23.564Z,12.11
2022-10-10T06:05:23.471Z,12.11
2022-10-10T06:06:23.456Z,12.19
2022-10-10T06:07:23.432Z,12.18
2022-10-10T06:08:23.478Z,12.13
2022-10-10T06:09:23.419Z,12.18
2022-10-10T06:10:23.416Z,12.18
2022-10-10T06:11:23.449Z,12.18
2022-10-10T06:12:23.377Z,12.18
2022-10-10T06:13:24.582Z,12.11
2022-10-10T06:14:23.398Z,12.08
2022-10-10T06:15:23.402Z,12.15
2022-10-10T06:16:23.333Z,12.11
2022-10-10T06:17:23.379Z,12.26
2022-10-10T06:18:23.370Z,12.26
2022-10-10T06:19:23.436Z,12.25
2022-10-10T06:20:23.297Z,12.41
2022-10-10T06:21:23.308Z,12.38
2022-10-10T06:22:23.272Z,12.36
2022-10-10T06:23:23.352Z,12.40
2022-10-10T06:24:23.289Z,12.40
2022-10-10T06:25:39.548Z,12.41
2022-10-10T06:26:24.219Z,12.49
2022-10-10T06:27:23.224Z,12.49
2022-10-10T06:28:23.331Z,12.54
2022-10-10T06:29:23.313Z,12.63
2022-10-10T06:30:23.568Z,12.52
2022-10-10T06:31:23.212Z,12.55
2022-10-10T06:32:23.154Z,12.55
2022-10-10T06:33:23.327Z,12.55
2022-10-10T06:34:23.168Z,12.51
2022-10-10T06:35:23.234Z,12.63
2022-10-10T06:36:23.121Z,12.61
2022-10-10T06:37:23.203Z,12.66
2022-10-10T06:38:23.093Z,12.66
2022-10-10T06:39:23.108Z,12.77
2022-10-10T06:40:23.078Z,12.81
2022-10-10T06:41:23.194Z,12.71
2022-10-10T06:42:23.100Z,12.85
2022-10-10T06:43:23.107Z,12.91
2022-10-10T06:44:23.070Z,12.85
2022-10-10T06:45:23.120Z,12.89
2022-10-10T06:46:23.039Z,12.88
2022-10-10T06:47:22.996Z,12.87
2022-10-10T06:48:23.027Z,12.91
2022-10-10T06:49:23.063Z,12.95
2022-10-10T06:50:23.010Z,12.94
2022-10-10T06:51:22.980Z,12.92
2022-10-10T06:52:22.992Z,12.92
2022-10-10T06:53:22.956Z,12.85
2022-10-10T06:54:22.975Z,12.87
2022-10-10T06:55:23.009Z,12.89
2022-10-10T06:56:27.353Z,12.84
2022-10-10T06:57:22.894Z,12.92
2022-10-10T06:58:22.898Z,12.81
2022-10-10T06:59:22.872Z,12.89
2022-10-10T07:00:22.971Z,12.85
2022-10-10T07:01:22.979Z,12.87
2022-10-10T07:02:22.880Z,12.91
2022-10-10T07:03:22.869Z,12.87
2022-10-10T07:04:22.825Z,12.89
2022-10-10T07:05:22.803Z,12.94
2022-10-10T07:06:22.894Z,12.89
2022-10-10T07:07:22.791Z,12.98
2022-10-10T07:08:22.774Z,12.96
2022-10-10T07:09:22.873Z,13.06
2022-10-10T07:10:22.765Z,13.01
2022-10-10T07:11:22.775Z,13.19
2022-10-10T07:12:22.721Z,13.27
2022-10-10T07:13:22.735Z,13.39
2022-10-10T07:14:22.796Z,13.44
2022-10-10T07:15:22.685Z,13.53
2022-10-10T07:16:22.710Z,13.55
2022-10-10T07:17:22.678Z,13.48
2022-10-10T07:18:22.694Z,13.38
2022-10-10T07:19:22.647Z,13.46
2022-10-10T07:20:22.694Z,13.55
2022-10-10T07:21:22.678Z,13.54
2022-10-10T07:22:22.648Z,13.50
2022-10-10T07:23:22.668Z,13.53
2022-10-10T07:24:22.652Z,13.63
2022-10-10T07:25:22.617Z,13.61
2022-10-10T07:26:22.619Z,13.79
2022-10-10T07:27:22.556Z,14.08
2022-10-10T07:28:22.594Z,14.42
2022-10-10T07:29:22.546Z,14.41
2022-10-10T07:30:22.530Z,14.41
2022-10-10T07:31:22.524Z,14.31
2022-10-10T07:32:22.509Z,14.35
2022-10-10T07:33:22.594Z,14.72
2022-10-10T07:34:22.503Z,15.11
2022-10-10T07:35:22.482Z,15.64
2022-10-10T07:36:22.475Z,16.14
2022-10-10T07:37:22.462Z,16.75
2022-10-10T07:38:22.839Z,17.14
2022-10-10T07:39:22.443Z,17.27
2022-10-10T07:40:22.486Z,17.66
2022-10-10T07:41:22.393Z,18.19
2022-10-10T07:42:22.414Z,18.57
2022-10-10T07:43:22.420Z,18.65
2022-10-10T07:44:22.408Z,19.05
2022-10-10T07:45:22.366Z,18.87
2022-10-10T07:46:22.482Z,19.17
2022-10-10T07:47:22.388Z,19.46
2022-10-10T07:48:22.383Z,19.97
2022-10-10T07:49:22.335Z,20.19
2022-10-10T07:50:22.363Z,20.44
2022-10-10T07:51:22.292Z,20.97
2022-10-10T07:52:22.346Z,21.33
2022-10-10T07:53:22.329Z,21.58
2022-10-10T07:54:22.490Z,21.68
2022-10-10T07:55:22.275Z,21.18
2022-10-10T07:56:22.262Z,20.44
2022-10-10T07:57:22.224Z,20.13
2022-10-10T07:58:22.486Z,19.90
2022-10-10T07:59:22.200Z,19.68
2022-10-10T08:00:22.256Z,19.31
2022-10-10T08:01:22.223Z,19.09
2022-10-10T08:02:22.288Z,19.43
2022-10-10T08:03:22.202Z,19.86
2022-10-10T08:04:22.226Z,20.12
2022-10-10T08:05:22.170Z,20.57
2022-10-10T08:06:22.290Z,20.93
2022-10-10T08:07:22.119Z,21.58
2022-10-10T08:08:22.186Z,21.73
2022-10-10T08:09:22.149Z,22.09
2022-10-10T08:10:22.112Z,22.29
2022-10-10T08:11:22.160Z,22.63
2022-10-10T08:12:22.137Z,22.84
2022-10-10T08:13:22.101Z,23.09
2022-10-10T08:14:22.201Z,23.26
2022-10-10T08:15:22.033Z,23.38
2022-10-10T08:16:22.055Z,23.67
2022-10-10T08:17:22.069Z,23.60
2022-10-10T08:18:22.076Z,23.16
2022-10-10T08:19:21.980Z,23.42
2022-10-10T08:20:22.141Z,23.06
2022-10-10T08:21:21.959Z,22.93
2022-10-10T08:22:22.002Z,22.70
2022-10-10T08:23:23.854Z,22.99
2022-10-10T08:24:21.931Z,22.86
2022-10-10T08:25:21.915Z,22.48
2022-10-10T08:26:21.961Z,22.44
2022-10-10T08:27:21.908Z,22.35
2022-10-10T08:28:21.987Z,21.85
2022-10-10T08:29:21.917Z,21.66
2022-10-10T08:30:21.929Z,22.01
2022-10-10T08:31:21.874Z,22.06
2022-10-10T08:32:21.847Z,21.98
2022-10-10T08:33:21.860Z,22.33
2022-10-10T08:34:21.851Z,22.49
2022-10-10T08:35:21.842Z,22.72
2022-10-10T08:36:21.793Z,23.03
2022-10-10T08:37:24.743Z,22.82
2022-10-10T08:38:22.888Z,22.63
2022-10-10T08:39:21.766Z,22.12
2022-10-10T08:40:21.845Z,21.64
2022-10-10T08:41:21.739Z,22.01
2022-10-10T08:42:21.781Z,22.61
2022-10-10T08:43:21.785Z,23.18
2022-10-10T08:44:21.734Z,23.38
2022-10-10T08:45:21.734Z,23.56
2022-10-10T08:46:21.699Z,23.97
2022-10-10T08:47:21.707Z,24.27
2022-10-10T08:48:21.687Z,24.49
2022-10-10T08:49:21.677Z,24.90
2022-10-10T08:50:21.726Z,25.09
2022-10-10T08:51:21.630Z,25.16
2022-10-10T08:52:21.630Z,24.92
2022-10-10T08:53:21.641Z,24.66
2022-10-10T08:54:21.626Z,24.67
2022-10-10T08:55:21.582Z,24.63
2022-10-10T08:56:21.695Z,24.37
2022-10-10T08:57:21.648Z,24.44
2022-10-10T08:58:21.599Z,24.24
2022-10-10T08:59:21.552Z,24.19
2022-10-10T09:00:21.578Z,23.96
2022-10-10T09:01:23.851Z,23.96
2022-10-10T09:02:25.988Z,24.04
2022-10-10T09:03:21.536Z,23.90
2022-10-10T09:04:21.555Z,23.64
2022-10-10T09:05:21.493Z,23.64
2022-10-10T09:06:21.497Z,23.62
2022-10-10T09:07:21.488Z,23.68
2022-10-10T09:08:25.727Z,23.93
2022-10-10T09:09:22.437Z,23.96
2022-10-10T09:10:21.464Z,24.18
2022-10-10T09:11:21.454Z,24.34
2022-10-10T09:12:21.468Z,24.36
2022-10-10T09:13:21.591Z,24.44
2022-10-10T09:14:22.048Z,24.48
2022-10-10T09:15:21.402Z,24.36
2022-10-10T09:16:21.423Z,24.63
2022-10-10T09:17:21.412Z,24.61
2022-10-10T09:18:21.385Z,24.41
2022-10-10T09:19:21.356Z,24.27
2022-10-10T09:20:21.315Z,24.30
2022-10-10T09:21:21.458Z,24.33
2022-10-10T09:22:21.723Z,24.37
2022-10-10T09:23:21.504Z,24.48
2022-10-10T09:24:21.285Z,24.39
2022-10-10T09:25:21.257Z,24.51
2022-10-10T09:26:21.291Z,24.80
2022-10-10T09:27:21.267Z,24.64
2022-10-10T09:28:21.311Z,24.60
2022-10-10T09:29:21.234Z,24.70
2022-10-10T09:30:21.429Z,24.93
2022-10-10T09:31:21.323Z,24.77
2022-10-10T09:32:21.833Z,24.77
2022-10-10T09:33:21.185Z,24.89
2022-10-10T09:34:21.159Z,24.98
2022-10-10T09:35:21.163Z,24.94
2022-10-10T09:36:21.140Z,25.01
2022-10-10T09:37:35.605Z,24.99
2022-10-10T09:38:22.262Z,25.01
2022-10-10T09:39:21.534Z,24.92
2022-10-10T09:40:21.131Z,24.79
2022-10-10T09:41:23.507Z,25.07
2022-10-10T09:42:21.113Z,25.09
2022-10-10T09:43:21.110Z,25.35
2022-10-10T09:44:21.047Z,25.39
2022-10-10T09:45:21.080Z,25.38
2022-10-10T09:46:21.053Z,25.38
2022-10-10T09:47:21.048Z,25.24
2022-10-10T09:48:21.879Z,25.07
2022-10-10T09:49:21.366Z,25.08
2022-10-10T09:50:24.468Z,25.02
2022-10-10T09:51:20.998Z,25.08
2022-10-10T09:52:20.964Z,25.07
2022-10-10T09:53:20.968Z,25.04
2022-10-10T09:54:20.992Z,24.83
2022-10-10T09:55:20.952Z,24.64
2022-10-10T09:56:20.917Z,24.93
2022-10-10T09:57:21.742Z,24.92
2022-10-10T09:58:21.098Z,24.99
2022-10-10T09:59:21.471Z,25.04
2022-10-10T10:00:20.879Z,25.34
2022-10-10T10:01:21.023Z,25.17
2022-10-10T10:02:20.915Z,25.22
2022-10-10T10:03:20.868Z,25.17
2022-10-10T10:04:28.426Z,25.02
2022-10-10T10:05:21.832Z,24.75
2022-10-10T10:06:21.834Z,24.61
2022-10-10T10:07:21.948Z,24.53
2022-10-10T10:08:21.725Z,24.45
2022-10-10T10:09:20.779Z,24.53
2022-10-10T10:10:20.772Z,24.67
2022-10-10T10:11:20.778Z,24.48
2022-10-10T10:12:20.772Z,24.61
2022-10-10T10:13:20.752Z,24.74
2022-10-10T10:14:20.747Z,24.74
2022-10-10T10:15:21.191Z,24.66
2022-10-10T10:16:21.462Z,24.92
2022-10-10T10:17:20.706Z,25.16
2022-10-10T10:18:20.684Z,24.98
2022-10-10T10:19:20.683Z,25.08
2022-10-10T10:20:20.678Z,25.19
2022-10-10T10:21:20.739Z,25.30
2022-10-10T10:22:24.397Z,25.35
2022-10-10T10:23:21.633Z,25.07
2022-10-10T10:24:21.939Z,25.01
2022-10-10T10:25:20.949Z,24.83
2022-10-10T10:26:20.600Z,24.84
2022-10-10T10:27:20.638Z,24.89
2022-10-10T10:28:20.673Z,25.04
2022-10-10T10:29:20.667Z,24.97
2022-10-10T10:30:20.580Z,24.70
2022-10-10T10:31:20.550Z,24.82
2022-10-10T10:32:20.621Z,24.67
2022-10-10T10:33:20.655Z,24.79
2022-10-10T10:34:22.089Z,24.75
2022-10-10T10:35:20.511Z,24.92
2022-10-10T10:36:20.519Z,24.93
2022-10-10T10:37:20.489Z,25.07
2022-10-10T10:38:20.549Z,25.31
2022-10-10T10:39:20.486Z,25.38
2022-10-10T10:40:20.515Z,25.46
2022-10-10T10:41:20.453Z,25.31
2022-10-10T10:42:20.547Z,25.36
2022-10-10T10:43:22.330Z,25.24
2022-10-10T10:44:20.464Z,25.19
2022-10-10T10:45:20.427Z,25.48
2022-10-10T10:46:20.424Z,25.36
2022-10-10T10:47:20.431Z,25.45
2022-10-10T10:48:20.376Z,25.57
2022-10-10T10:49:21.915Z,25.69
2022-10-10T10:50:20.560Z,25.64
2022-10-10T10:51:20.450Z,25.67
2022-10-10T10:52:21.285Z,25.97
2022-10-10T10:53:20.344Z,26.03
2022-10-10T10:54:20.297Z,26.11
2022-10-10T10:55:20.298Z,26.08
2022-10-10T10:56:20.390Z,26.11
2022-10-10T10:57:45.812Z,26.09
2022-10-10T11:00:26.444Z,26.35
2022-10-10T11:01:19.873Z,26.64
2022-10-10T11:01:45.004Z,26.81
2022-10-10T11:02:37.003Z,26.73
2022-10-10T11:05:16.322Z,26.71
2022-10-10T11:05:21.947Z,26.73
2022-10-10T11:05:29.505Z,26.64
2022-10-10T11:06:21.332Z,26.51
2022-10-10T11:07:21.073Z,26.76
2022-10-10T11:08:20.796Z,26.50
2022-10-10T11:09:44.898Z,26.57
2022-10-10T11:10:22.289Z,26.76
2022-10-10T11:11:20.121Z,26.73
2022-10-10T11:12:20.140Z,26.73
2022-10-10T11:13:20.107Z,26.79
2022-10-10T11:14:20.105Z,26.71
2022-10-10T11:15:20.079Z,26.76
2022-10-10T11:16:36.614Z,26.61
2022-10-10T11:17:21.432Z,26.53
2022-10-10T11:18:20.118Z,26.39
2022-10-10T11:19:21.214Z,25.94
2022-10-10T11:20:20.101Z,25.81
2022-10-10T11:21:20.010Z,26.00
2022-10-10T11:22:20.029Z,26.03
2022-10-10T11:23:19.993Z,26.08
2022-10-10T11:24:20.016Z,26.27
2022-10-10T11:25:19.975Z,26.34
2022-10-10T11:26:20.814Z,26.47
2022-10-10T11:27:20.211Z,26.66
2022-10-10T11:28:23.713Z,26.68
2022-10-10T11:29:19.942Z,26.72
2022-10-10T11:30:19.942Z,26.50
2022-10-10T11:31:19.948Z,26.71
2022-10-10T11:33:19.888Z,27.05
2022-10-10T11:34:19.895Z,27.15
2022-10-10T11:35:20.247Z,27.11
2022-10-10T11:36:20.165Z,26.93
2022-10-10T11:37:19.900Z,27.08
2022-10-10T11:38:19.865Z,27.08
2022-10-10T11:39:19.824Z,27.20
2022-10-10T11:40:19.868Z,27.24
2022-10-10T11:41:19.812Z,27.34
2022-10-10T11:42:19.825Z,27.35
2022-10-10T11:43:19.784Z,27.05
2022-10-10T11:44:20.093Z,26.94
2022-10-10T11:45:19.918Z,26.69
2022-10-10T11:46:19.751Z,26.54
2022-10-10T11:47:19.775Z,26.87
2022-10-10T11:48:19.765Z,26.79
2022-10-10T11:49:19.725Z,26.49
2022-10-10T11:50:19.798Z,26.46
2022-10-10T11:51:19.699Z,26.53
2022-10-10T11:52:34.819Z,26.69
2022-10-10T11:53:21.137Z,26.72
2022-10-10T11:54:20.075Z,26.75
2022-10-10T11:55:19.705Z,26.29
2022-10-10T11:56:19.655Z,26.41
2022-10-10T11:57:19.665Z,26.21
2022-10-10T11:58:19.649Z,26.04
2022-10-10T11:59:19.630Z,26.16
2022-10-10T12:00:19.639Z,26.27
2022-10-10T12:01:19.619Z,26.36
2022-10-10T12:02:22.304Z,26.39
2022-10-10T12:03:19.827Z,26.46
2022-10-10T12:04:19.584Z,26.51
2022-10-10T12:05:19.558Z,26.56
2022-10-10T12:06:19.615Z,26.75
2022-10-10T12:07:19.563Z,26.88
2022-10-10T12:08:19.528Z,26.73
2022-10-10T12:09:19.606Z,26.59
2022-10-10T12:10:19.497Z,26.51
2022-10-10T12:11:22.109Z,26.34
2022-10-10T12:12:19.649Z,26.12
2022-10-10T12:13:19.493Z,26.19
2022-10-10T12:14:19.448Z,26.13
2022-10-10T12:15:19.457Z,26.00
2022-10-10T12:16:19.431Z,25.97
2022-10-10T12:17:19.419Z,26.13
2022-10-10T12:18:19.487Z,26.19
2022-10-10T12:19:19.448Z,26.34
2022-10-10T12:20:20.437Z,26.19
2022-10-10T12:21:20.079Z,26.21
2022-10-10T12:22:19.379Z,26.23
2022-10-10T12:23:19.377Z,26.29
2022-10-10T12:24:19.363Z,26.32
2022-10-10T12:25:19.428Z,26.23
2022-10-10T12:26:19.336Z,26.21
2022-10-10T12:27:19.313Z,26.08
2022-10-10T12:28:19.387Z,26.23
2022-10-10T12:29:19.786Z,26.28
2022-10-10T12:30:21.605Z,26.42
2022-10-10T12:31:19.293Z,26.41
2022-10-10T12:32:19.300Z,26.59
2022-10-10T12:33:19.310Z,26.84
2022-10-10T12:34:19.239Z,27.03
2022-10-10T12:35:19.306Z,26.97
2022-10-10T12:36:19.265Z,26.98
2022-10-10T12:37:19.256Z,26.98
2022-10-10T12:38:23.010Z,27.13
2022-10-10T12:39:22.776Z,26.98
2022-10-10T12:40:19.179Z,26.88
2022-10-10T12:41:19.174Z,26.81
2022-10-10T12:42:19.164Z,26.44
2022-10-10T12:43:19.179Z,26.32
2022-10-10T12:44:19.163Z,26.50
2022-10-10T12:45:19.126Z,26.49
2022-10-10T12:46:19.211Z,26.54
2022-10-10T12:47:19.284Z,26.44
2022-10-10T12:48:21.986Z,26.64
2022-10-10T12:49:19.086Z,26.91
2022-10-10T12:50:19.099Z,26.96
2022-10-10T12:51:19.058Z,27.09
2022-10-10T12:52:19.152Z,26.76
2022-10-10T12:53:19.119Z,26.66
2022-10-10T12:54:19.063Z,26.50